Time;durP1;ratioP1;P1;durP2;ratioP2;P2;SDS_P1;SDS_P2;PMS_P1;PMS_P2;Temp;Humidity;BMP_temperature;BMP_pressure;BME280_temperature;BME280_humidity;BME280_pressure;Samples;Min_cycle;Max_cycle;Signal;HPM_P1;HPM_P2
2021/08/27 00:02:25;;;;;;;12.88;6.28;;;;;;;16.69;100.00;94290.81;10330816;28;20027;-74
2021/08/27 00:07:26;;;;;;;14.68;5.97;;;;;;;16.59;100.00;94286.53;10330334;28;20046;-73
2021/08/27 00:12:26;;;;;;;12.97;6.07;;;;;;;16.67;100.00;94290.31;10330882;28;20030;-73
2021/08/27 00:17:30;;;;;;;10.80;6.22;;;;;;;16.64;100.00;94299.13;10330754;28;20281;-74
2021/08/27 00:22:30;;;;;;;11.88;6.47;;;;;;;16.64;100.00;94307.25;10313164;28;20105;-73
2021/08/27 00:27:30;;;;;;;11.77;6.20;;;;;;;16.46;100.00;94307.28;10330504;28;20030;-73
2021/08/27 00:32:31;;;;;;;12.38;5.90;;;;;;;16.47;100.00;94308.09;10330172;28;20030;-73
2021/08/27 00:37:33;;;;;;;11.60;5.78;;;;;;;16.41;100.00;94296.59;10312724;28;20022;-73
2021/08/27 00:42:34;;;;;;;17.83;7.22;;;;;;;16.52;100.00;94305.19;10329875;28;20023;-73
2021/08/27 00:47:34;;;;;;;12.90;6.43;;;;;;;16.43;100.00;94304.41;10329038;28;20417;-73
2021/08/27 00:52:39;;;;;;;10.00;5.53;;;;;;;16.46;100.00;94295.63;10329196;28;20112;-74
2021/08/27 00:57:39;;;;;;;11.55;6.28;;;;;;;16.48;100.00;94291.47;10328929;28;20276;-74
2021/08/27 01:02:39;;;;;;;9.10;5.37;;;;;;;16.55;100.00;94296.44;10328094;28;20029;-74
2021/08/27 01:07:52;;;;;;;14.10;6.03;;;;;;;16.22;100.00;94313.19;10328517;28;20042;-74
2021/08/27 01:13:13;;;;;;;10.32;6.22;;;;;;;15.97;100.00;94320.19;10328630;28;20289;-74
2021/08/27 01:18:27;;;;;;;21.25;6.90;;;;;;;15.80;100.00;94323.69;10328352;28;20033;-74
2021/08/27 01:23:32;;;;;;;17.15;7.20;;;;;;;15.85;100.00;94327.03;10328443;28;20026;-74
2021/08/27 01:28:41;;;;;;;20.13;7.53;;;;;;;15.83;100.00;94329.25;10327746;28;20023;-73
2021/08/27 01:33:54;;;;;;;17.25;8.20;;;;;;;15.82;100.00;94343.94;10327676;28;20022;-73
2021/08/27 01:38:56;;;;;;;16.88;7.82;;;;;;;15.85;100.00;94356.03;10327834;28;20022;-73
2021/08/27 01:43:59;;;;;;;15.27;8.10;;;;;;;15.82;100.00;94376.47;10330483;28;20026;-73
2021/08/27 01:49:01;;;;;;;25.70;8.55;;;;;;;15.89;100.00;94370.56;10330629;28;20022;-73
2021/08/27 01:54:03;;;;;;;16.73;8.45;;;;;;;16.10;100.00;94362.59;10330361;28;20433;-73
2021/08/27 01:59:05;;;;;;;23.02;9.32;;;;;;;16.08;100.00;94364.84;10330337;28;20114;-73
2021/08/27 02:04:10;;;;;;;29.52;9.70;;;;;;;16.20;100.00;94364.22;10330246;28;20085;-73
2021/08/27 02:09:12;;;;;;;19.00;9.07;;;;;;;16.02;100.00;94385.09;10312308;28;20050;-73
2021/08/27 02:14:14;;;;;;;30.83;8.60;;;;;;;15.98;100.00;94354.31;10329593;28;20033;-72
2021/08/27 02:19:15;;;;;;;23.98;9.98;;;;;;;15.96;100.00;94343.00;10327833;28;20033;-73
2021/08/27 02:24:20;;;;;;;22.42;9.15;;;;;;;15.80;100.00;94362.41;10327914;28;20029;-72
2021/08/27 02:29:24;;;;;;;18.77;8.73;;;;;;;15.87;100.00;94357.31;10327239;28;20528;-73
2021/08/27 02:34:26;;;;;;;21.05;8.93;;;;;;;15.84;100.00;94357.97;10328810;28;20114;-73
2021/08/27 02:39:29;;;;;;;39.17;9.73;;;;;;;15.88;100.00;94367.06;10328395;28;20027;-73
2021/08/27 02:44:30;;;;;;;18.85;8.65;;;;;;;15.93;100.00;94359.88;10325517;28;20036;-73
2021/08/27 02:49:30;;;;;;;14.43;8.18;;;;;;;15.91;100.00;94368.34;10325864;28;20363;-73
2021/08/27 02:54:39;;;;;;;14.43;9.00;;;;;;;15.89;100.00;94359.72;10325767;28;20076;-73
2021/08/27 02:59:40;;;;;;;18.27;9.40;;;;;;;15.99;100.00;94366.75;10325279;28;20031;-73
2021/08/27 03:05:11;;;;;;;14.90;8.05;;;;;;;15.99;100.00;94366.75;10325661;28;20077;-73
2021/08/27 03:10:37;;;;;;;22.52;10.65;;;;;;;16.09;100.00;94374.59;10324969;28;20046;-73
2021/08/27 03:15:46;;;;;;;49.97;11.52;;;;;;;16.14;100.00;94368.22;10325361;28;20027;-73
2021/08/27 03:20:59;;;;;;;21.23;11.23;;;;;;;16.25;100.00;94366.00;10324976;28;20041;-74
2021/08/27 03:26:03;;;;;;;22.85;12.13;;;;;;;16.26;100.00;94352.13;10324897;28;20413;-74
2021/08/27 03:31:05;;;;;;;21.60;10.90;;;;;;;16.19;100.00;94340.94;10324127;28;20030;-73
2021/08/27 03:36:06;;;;;;;18.48;11.05;;;;;;;16.11;100.00;94345.25;10324773;28;20142;-74
2021/08/27 03:41:07;;;;;;;24.48;12.50;;;;;;;16.13;100.00;94356.56;10330630;28;20019;-75
2021/08/27 03:46:08;;;;;;;31.00;12.35;;;;;;;16.22;100.00;94362.00;10331873;28;20060;-75
2021/08/27 03:51:09;;;;;;;24.02;12.05;;;;;;;16.32;100.00;94367.09;10331562;28;20667;-74
2021/08/27 03:56:10;;;;;;;26.75;13.50;;;;;;;16.41;100.00;94367.13;10331499;28;20042;-73
2021/08/27 04:01:11;;;;;;;33.75;12.68;;;;;;;16.45;100.00;94373.50;10331320;28;20023;-74
2021/08/27 04:06:11;;;;;;;26.30;12.35;;;;;;;16.38;100.00;94363.13;10331060;28;20121;-73
2021/08/27 04:11:15;;;;;;;29.00;12.07;;;;;;;16.35;100.00;94361.06;10331037;28;20038;-74
2021/08/27 04:16:15;;;;;;;18.98;11.02;;;;;;;16.21;100.00;94363.91;10330660;28;20998;-74
2021/08/27 04:21:16;;;;;;;21.43;12.13;;;;;;;16.22;100.00;94378.28;10330340;28;20022;-73
2021/08/27 04:26:17;;;;;;;20.20;11.30;;;;;;;16.21;100.00;94379.38;10330512;28;20392;-74
2021/08/27 04:31:17;;;;;;;19.17;9.85;;;;;;;16.35;100.00;94379.22;10330311;28;20053;-76
2021/08/27 04:36:18;;;;;;;19.98;11.02;;;;;;;16.38;100.00;94375.88;10300244;28;20057;-74
2021/08/27 04:41:18;;;;;;;22.23;11.40;;;;;;;16.43;100.00;94385.78;10289387;28;20085;-73
2021/08/27 04:46:19;;;;;;;22.15;11.95;;;;;;;16.16;100.00;94380.34;10288572;28;20031;-74
2021/08/27 04:51:20;;;;;;;22.95;12.23;;;;;;;16.13;100.00;94378.25;10288274;28;20062;-73
2021/08/27 04:56:20;;;;;;;24.40;11.83;;;;;;;16.29;100.00;94381.31;10287604;28;20141;-74
2021/08/27 05:01:21;;;;;;;30.45;13.70;;;;;;;16.38;100.00;94378.59;10288752;28;20270;-74
2021/08/27 05:06:21;;;;;;;23.33;12.70;;;;;;;16.38;100.00;94382.13;10288308;28;20043;-73
2021/08/27 05:11:22;;;;;;;26.00;13.70;;;;;;;16.63;100.00;94387.06;10286626;28;20089;-73
2021/08/27 05:16:22;;;;;;;28.10;14.00;;;;;;;16.78;100.00;94385.78;10287636;28;20031;-74
2021/08/27 05:21:22;;;;;;;23.87;13.57;;;;;;;16.75;100.00;94379.84;10287501;28;20023;-74
2021/08/27 05:26:26;;;;;;;26.47;14.40;;;;;;;16.83;100.00;94391.00;10287715;28;20113;-73
2021/08/27 05:31:27;;;;;;;25.35;13.50;;;;;;;16.96;100.00;94381.16;10287246;28;20031;-73
2021/08/27 05:36:27;;;;;;;24.27;13.68;;;;;;;17.10;100.00;94381.75;10287176;28;20479;-73
2021/08/27 05:41:28;;;;;;;25.63;13.90;;;;;;;17.22;100.00;94372.94;10287081;28;20054;-74
2021/08/27 05:46:28;;;;;;;26.00;14.43;;;;;;;17.32;100.00;94382.66;10287053;28;20034;-73
2021/08/27 05:51:28;;;;;;;31.00;16.47;;;;;;;17.44;100.00;94385.47;10286173;28;20783;-74
2021/08/27 05:56:29;;;;;;;30.73;15.00;;;;;;;17.57;100.00;94379.03;10285923;28;20106;-73
2021/08/27 06:01:30;;;;;;;27.90;16.05;;;;;;;17.77;100.00;94384.88;10286371;28;20534;-74
2021/08/27 06:06:32;;;;;;;27.20;14.82;;;;;;;18.36;100.00;94397.66;10285180;28;20051;-73
2021/08/27 06:11:37;;;;;;;22.90;14.32;;;;;;;18.38;100.00;94386.47;10286188;28;20062;-73
2021/08/27 06:16:37;;;;;;;27.40;13.07;;;;;;;18.30;100.00;94385.38;10289090;28;20031;-73
2021/08/27 06:21:39;;;;;;;20.73;11.37;;;;;;;18.15;100.00;94378.59;10287060;28;20209;-74
2021/08/27 06:26:39;;;;;;;15.75;9.85;;;;;;;17.99;100.00;94361.28;10287169;28;20293;-73
2021/08/27 06:31:39;;;;;;;14.43;9.87;;;;;;;18.05;100.00;94363.47;10287068;28;20030;-73
2021/08/27 06:36:40;;;;;;;17.52;10.38;;;;;;;17.87;100.00;94364.66;10286824;28;20286;-74
2021/08/27 06:41:40;;;;;;;18.83;10.97;;;;;;;18.13;100.00;94369.97;10285905;28;20031;-73
2021/08/27 06:46:43;;;;;;;16.85;10.43;;;;;;;18.19;100.00;94355.06;10287041;28;20761;-73
2021/08/27 06:51:44;;;;;;;17.67;11.02;;;;;;;18.09;100.00;94358.97;10286264;28;20046;-73
2021/08/27 06:56:44;;;;;;;20.77;11.23;;;;;;;18.07;100.00;94354.97;10286616;28;20070;-73
2021/08/27 07:01:44;;;;;;;16.77;9.30;;;;;;;18.48;100.00;94355.34;10286534;28;20453;-73
2021/08/27 07:06:45;;;;;;;14.43;8.73;;;;;;;19.07;100.00;94348.88;10285318;28;20339;-73
2021/08/27 07:11:45;;;;;;;13.77;9.00;;;;;;;19.46;100.00;94347.47;10286156;28;20035;-73
2021/08/27 07:16:45;;;;;;;18.42;9.68;;;;;;;20.27;100.00;94341.44;10293526;28;20033;-73
2021/08/27 07:21:46;;;;;;;17.23;9.97;;;;;;;20.15;100.00;94327.84;10293766;28;20030;-73
2021/08/27 07:26:46;;;;;;;17.23;12.00;;;;;;;20.07;100.00;94331.50;10293706;28;20027;-74
2021/08/27 07:31:47;;;;;;;23.63;12.32;;;;;;;20.76;100.00;94346.00;10293277;28;20093;-73
2021/08/27 07:36:47;;;;;;;18.40;11.73;;;;;;;21.46;100.00;94343.91;10293352;28;20570;-73
2021/08/27 07:41:48;;;;;;;18.40;10.80;;;;;;;22.20;100.00;94337.84;10292936;28;20030;-73
2021/08/27 07:46:48;;;;;;;20.73;11.33;;;;;;;21.94;100.00;94347.44;10292823;28;20667;-73
2021/08/27 07:51:50;;;;;;;20.48;11.57;;;;;;;22.19;100.00;94337.06;10292762;28;20290;-73
2021/08/27 07:56:51;;;;;;;15.02;10.10;;;;;;;24.48;100.00;94326.25;10291965;28;20031;-73
2021/08/27 08:01:52;;;;;;;13.23;8.32;;;;;;;27.31;100.00;94326.16;10292544;28;20486;-73
2021/08/27 08:06:53;;;;;;;14.68;8.13;;;;;;;28.73;100.00;94317.47;10291883;28;20507;-74
2021/08/27 08:11:53;;;;;;;14.10;8.93;;;;;;;28.85;99.64;94327.28;10291657;28;20031;-74
2021/08/27 08:16:54;;;;;;;13.63;8.23;;;;;;;28.67;94.53;94326.56;10291987;28;20091;-73
2021/08/27 08:21:54;;;;;;;10.57;7.83;;;;;;;30.93;87.33;94326.09;10291667;28;20406;-74
2021/08/27 08:26:55;;;;;;;11.98;7.88;;;;;;;31.23;74.65;94332.88;10290306;28;20085;-74
2021/08/27 08:31:55;;;;;;;11.53;7.03;;;;;;;32.17;68.40;94305.28;10291423;28;20034;-74
2021/08/27 08:36:55;;;;;;;11.53;7.23;;;;;;;32.93;58.10;94295.53;10291228;28;20281;-74
2021/08/27 08:41:56;;;;;;;11.97;7.20;;;;;;;31.79;70.48;94296.38;10291113;28;20027;-74
2021/08/27 08:46:58;;;;;;;9.95;7.68;;;;;;;32.17;64.23;94296.19;10290679;28;20039;-74
2021/08/27 08:52:00;;;;;;;13.63;7.80;;;;;;;33.08;59.29;94295.25;10290552;28;20057;-74
2021/08/27 08:57:01;;;;;;;14.65;8.65;;;;;;;32.73;60.76;94284.44;10289919;28;20031;-74
2021/08/27 09:02:02;;;;;;;13.90;9.25;;;;;;;30.77;75.82;94296.16;10290101;28;20073;-74
2021/08/27 09:07:02;;;;;;;14.93;7.80;;;;;;;32.09;68.56;94298.25;10289884;28;20096;-75
2021/08/27 09:12:24;;;;;;;12.75;7.47;;;;;;;33.12;58.30;94287.63;10289600;28;20495;-75
2021/08/27 09:17:30;;;;;;;12.75;7.00;;;;;;;35.56;49.74;94293.75;10289603;28;20033;-74
2021/08/27 09:22:52;;;;;;;14.65;8.43;;;;;;;33.30;58.05;94276.13;10289067;28;20146;-74
2021/08/27 09:28:04;;;;;;;14.70;8.77;;;;;;;32.38;65.95;94279.09;10288752;28;20042;-74
2021/08/27 09:33:18;;;;;;;12.07;7.38;;;;;;;32.47;65.32;94270.22;10288530;28;20027;-74
2021/08/27 09:38:18;;;;;;;15.18;7.85;;;;;;;32.06;61.06;94276.88;10297201;28;20019;-74
2021/08/27 09:43:27;;;;;;;18.10;8.40;;;;;;;31.40;73.75;94268.00;10288302;28;20053;-74
2021/08/27 09:48:37;;;;;;;12.77;8.10;;;;;;;31.35;64.26;94252.56;10288103;28;20094;-74
2021/08/27 09:53:42;;;;;;;9.93;6.93;;;;;;;32.64;54.66;94259.13;10288016;28;20038;-74
2021/08/27 09:58:55;;;;;;;11.00;7.38;;;;;;;34.50;45.92;94244.88;10287928;28;20030;-74
2021/08/27 10:04:05;;;;;;;10.80;7.30;;;;;;;35.55;43.44;94236.25;10287629;28;20066;-74
2021/08/27 10:09:06;;;;;;;114.80;104.47;;;;;;;36.25;41.04;94231.56;10287609;28;20049;-74
2021/08/27 10:14:06;;;;;;;17.05;11.88;;;;;;;38.12;39.02;94212.47;10287742;28;20039;-74
2021/08/27 10:19:07;;;;;;;13.25;6.07;;;;;;;38.80;36.03;94217.13;10287539;28;20533;-73
2021/08/27 10:24:07;;;;;;;11.65;6.20;;;;;;;38.77;34.42;94201.22;10287331;28;20875;-72
2021/08/27 10:29:08;;;;;;;11.60;6.07;;;;;;;38.29;35.90;94207.34;10286371;28;20027;-72
2021/08/27 10:34:09;;;;;;;8.57;5.90;;;;;;;39.35;34.74;94203.44;10287049;28;20056;-74
2021/08/27 10:39:09;;;;;;;8.43;5.55;;;;;;;40.39;31.79;94195.47;10287285;28;20027;-74
2021/08/27 10:44:11;;;;;;;10.77;5.78;;;;;;;41.65;31.33;94180.22;10286950;28;20037;-74
2021/08/27 10:49:43;;;;;;;10.27;5.43;;;;;;;41.18;29.13;94173.56;10290245;28;20030;-75
2021/08/27 10:55:06;;;;;;;13.45;5.65;;;;;;;40.70;30.84;94176.59;10294865;28;20089;-74
2021/08/27 11:00:07;;;;;;;7.72;5.72;;;;;;;37.59;34.36;94174.13;10294584;28;20027;-74
2021/08/27 11:05:08;;;;;;;10.45;6.72;;;;;;;37.18;36.55;94164.19;10294267;28;20030;-73
2021/08/27 11:10:14;;;;;;;9.50;6.70;;;;;;;37.81;35.67;94162.06;10294065;28;20054;-74
2021/08/27 11:15:29;;;;;;;10.27;5.57;;;;;;;36.94;34.46;94165.50;10294021;28;20030;-74
2021/08/27 11:20:29;;;;;;;8.30;6.13;;;;;;;35.23;38.38;94173.78;10276711;28;20117;-73
2021/08/27 11:25:29;;;;;;;11.17;6.87;;;;;;;33.27;43.25;94182.28;10293660;28;20027;-73
2021/08/27 11:30:31;;;;;;;9.40;7.20;;;;;;;31.25;50.12;94170.25;10293390;28;20058;-73
2021/08/27 11:35:44;;;;;;;11.60;7.28;;;;;;;31.00;50.26;94174.16;10276075;28;20022;-73
2021/08/27 11:40:45;;;;;;;13.30;7.47;;;;;;;29.98;57.76;94182.16;10293209;28;20027;-74
2021/08/27 11:45:46;;;;;;;15.65;7.78;;;;;;;29.76;53.87;94178.00;10292926;28;20038;-74
2021/08/27 11:50:55;;;;;;;15.18;7.03;;;;;;;29.49;55.65;94171.13;10292676;28;20031;-73
2021/08/27 11:55:55;;;;;;;11.55;7.30;;;;;;;29.11;59.68;94173.78;10292483;28;20089;-74
2021/08/27 12:00:56;;;;;;;14.00;7.27;;;;;;;28.92;56.62;94175.09;10292423;28;20029;-74
2021/08/27 12:05:56;;;;;;;10.40;6.63;;;;;;;28.79;59.67;94176.78;10292397;28;20290;-74
2021/08/27 12:10:57;;;;;;;12.57;7.97;;;;;;;27.91;72.09;94183.03;10291854;28;20118;-73
2021/08/27 12:16:07;;;;;;;13.00;6.80;;;;;;;28.30;64.85;94188.44;10292003;28;20483;-73
2021/08/27 12:21:09;;;;;;;12.38;7.15;;;;;;;28.43;65.22;94182.47;10291465;28;20406;-73
2021/08/27 12:26:22;;;;;;;12.25;6.60;;;;;;;28.67;66.05;94182.78;10291650;28;20026;-73
2021/08/27 12:31:23;;;;;;;11.63;8.27;;;;;;;28.85;65.91;94188.97;10291284;28;20022;-73
2021/08/27 12:36:23;;;;;;;15.45;6.88;;;;;;;28.86;72.09;94189.75;10291044;28;20027;-73
2021/08/27 12:41:29;;;;;;;10.50;6.90;;;;;;;28.92;66.81;94188.94;10290829;28;20027;-73
2021/08/27 12:46:33;;;;;;;17.25;7.32;;;;;;;28.51;70.44;94184.00;10291988;28;20041;-73
2021/08/27 12:51:38;;;;;;;11.77;6.75;;;;;;;28.35;58.52;94180.91;10290263;28;20058;-73
2021/08/27 12:56:39;;;;;;;13.95;7.65;;;;;;;28.13;65.64;94181.00;10290532;28;20031;-73
2021/08/27 13:01:39;;;;;;;17.13;7.38;;;;;;;27.60;62.28;94182.66;10289708;28;20030;-73
2021/08/27 13:06:42;;;;;;;17.27;8.13;;;;;;;27.31;68.49;94166.13;10289652;28;20415;-74
2021/08/27 13:11:43;;;;;;;11.93;7.55;;;;;;;27.37;79.18;94167.31;10288616;28;20030;-74
2021/08/27 13:17:06;;;;;;;12.98;7.03;;;;;;;27.49;66.27;94159.81;10289719;28;20085;-74
2021/08/27 13:22:10;;;;;;;11.55;8.13;;;;;;;27.24;75.82;94157.84;10288988;28;20025;-74
2021/08/27 13:27:11;;;;;;;13.00;7.50;;;;;;;27.07;78.40;94154.69;10289227;28;20022;-73
2021/08/27 13:32:26;;;;;;;11.73;7.30;;;;;;;27.02;64.64;94151.53;10288437;28;20038;-74
2021/08/27 13:37:27;;;;;;;11.52;7.15;;;;;;;26.76;64.09;94157.03;10288962;28;20030;-74
2021/08/27 13:42:27;;;;;;;8.83;6.97;;;;;;;26.71;63.64;94153.84;10288795;28;20027;-74
2021/08/27 13:47:28;;;;;;;12.80;7.63;;;;;;;26.63;64.47;94158.53;10288443;28;20053;-74
2021/08/27 13:52:28;;;;;;;15.23;7.70;;;;;;;26.56;64.94;94159.31;10287747;28;20491;-74
2021/08/27 13:57:28;;;;;;;11.47;6.57;;;;;;;26.69;65.32;94151.50;10288190;28;20703;-74
2021/08/27 14:02:29;;;;;;;15.30;7.87;;;;;;;26.80;64.40;94162.53;10288005;28;20055;-74
2021/08/27 14:07:29;;;;;;;12.50;7.43;;;;;;;26.79;63.65;94158.19;10287607;28;20047;-74
2021/08/27 14:12:29;;;;;;;12.63;7.40;;;;;;;26.81;61.88;94158.63;10287578;28;20034;-73
2021/08/27 14:17:31;;;;;;;12.20;7.07;;;;;;;26.72;62.84;94155.44;10287362;28;20360;-73
2021/08/27 14:22:32;;;;;;;11.38;7.05;;;;;;;26.59;66.72;94160.50;10286854;28;20106;-73
2021/08/27 14:27:32;;;;;;;15.43;7.67;;;;;;;26.55;65.64;94156.94;10287290;28;20105;-73
2021/08/27 14:32:34;;;;;;;16.48;7.72;;;;;;;26.38;65.19;94161.25;10287217;28;20034;-73
2021/08/27 14:37:37;;;;;;;14.55;7.07;;;;;;;26.22;65.69;94159.63;10286669;28;20089;-74
2021/08/27 14:42:38;;;;;;;10.93;7.13;;;;;;;26.11;66.60;94161.53;10286828;28;20031;-74
2021/08/27 14:47:38;;;;;;;15.20;7.60;;;;;;;26.06;66.44;94154.41;10286312;28;20027;-74
2021/08/27 14:52:39;;;;;;;16.42;8.45;;;;;;;26.06;66.76;94151.66;10286489;28;20035;-73
2021/08/27 14:57:39;;;;;;;10.80;7.60;;;;;;;25.90;68.63;94154.72;10286796;28;20023;-73
2021/08/27 15:02:40;;;;;;;11.75;7.68;;;;;;;25.91;69.11;94152.75;10286554;28;20034;-73
2021/08/27 15:07:40;;;;;;;12.20;6.77;;;;;;;25.97;71.26;94150.41;10286230;28;20046;-73
2021/08/27 15:12:41;;;;;;;13.67;7.07;;;;;;;25.94;70.21;94149.22;10286435;28;20039;-74
2021/08/27 15:17:41;;;;;;;13.73;7.57;;;;;;;26.08;66.04;94152.09;10286344;28;20109;-73
2021/08/27 15:22:43;;;;;;;15.50;7.80;;;;;;;25.99;65.32;94143.34;10269071;28;20376;-73
2021/08/27 15:27:43;;;;;;;12.93;7.00;;;;;;;25.91;68.34;94139.78;10286245;28;20486;-73
2021/08/27 15:32:43;;;;;;;12.47;6.40;;;;;;;25.89;66.95;94152.38;10285670;28;20034;-74
2021/08/27 15:37:44;;;;;;;14.02;6.53;;;;;;;25.81;66.51;94146.03;10292909;28;20054;-75
2021/08/27 15:42:45;;;;;;;14.73;5.75;;;;;;;25.78;68.18;94146.03;10291743;28;20026;-74
2021/08/27 15:47:45;;;;;;;11.98;6.35;;;;;;;25.69;67.60;94149.91;10291569;28;20022;-74
2021/08/27 15:52:46;;;;;;;9.00;6.47;;;;;;;25.52;68.85;94158.81;10293070;28;20039;-75
2021/08/27 15:57:47;;;;;;;13.87;6.23;;;;;;;25.44;68.14;94157.19;10292545;28;20038;-74
2021/08/27 16:02:47;;;;;;;9.73;6.57;;;;;;;25.47;68.54;94148.22;10292398;28;20030;-74
2021/08/27 16:07:48;;;;;;;13.50;6.65;;;;;;;25.55;68.78;94156.13;10292332;28;20524;-74
2021/08/27 16:12:48;;;;;;;9.07;6.47;;;;;;;25.44;69.72;94160.75;10290287;28;20074;-74
2021/08/27 16:17:49;;;;;;;12.73;6.90;;;;;;;25.46;70.40;94157.63;10291852;28;20039;-74
2021/08/27 16:22:49;;;;;;;10.97;6.97;;;;;;;25.36;71.75;94164.63;10291944;28;20328;-74
2021/08/27 16:27:49;;;;;;;11.23;7.00;;;;;;;25.36;72.17;94159.91;10291355;28;20046;-74
2021/08/27 16:32:50;;;;;;;15.20;7.13;;;;;;;25.41;71.77;94169.75;10291298;28;20399;-74
2021/08/27 16:37:50;;;;;;;10.07;7.03;;;;;;;25.39;73.11;94163.84;10291377;28;20463;-75
2021/08/27 16:42:51;;;;;;;14.00;7.23;;;;;;;25.30;75.77;94175.16;10291102;28;20101;-75
2021/08/27 16:47:54;;;;;;;15.83;7.77;;;;;;;25.17;80.62;94171.91;10289527;28;20105;-74
2021/08/27 16:52:55;;;;;;;11.40;7.88;;;;;;;25.02;84.13;94167.47;10290617;28;20030;-74
2021/08/27 16:57:55;;;;;;;18.70;8.30;;;;;;;24.92;86.61;94177.19;10290181;28;20031;-74
2021/08/27 17:02:55;;;;;;;22.47;8.93;;;;;;;24.85;89.49;94180.69;10290236;28;20027;-74
2021/08/27 17:07:56;;;;;;;21.03;9.30;;;;;;;24.70;94.43;94190.75;10288789;28;20141;-74
2021/08/27 17:12:56;;;;;;;18.47;10.67;;;;;;;24.60;97.63;94196.91;10287296;28;20045;-74
2021/08/27 17:17:57;;;;;;;16.13;9.35;;;;;;;24.34;100.00;94208.78;10288142;28;20409;-74
2021/08/27 17:22:57;;;;;;;21.53;10.33;;;;;;;24.15;100.00;94215.19;10288382;28;20109;-74
2021/08/27 17:27:57;;;;;;;18.33;11.33;;;;;;;23.95;100.00;94215.34;10287839;28;20497;-74
2021/08/27 17:32:58;;;;;;;39.90;16.73;;;;;;;23.79;100.00;94220.19;10287332;28;20035;-73
2021/08/27 17:37:58;;;;;;;14.55;9.50;;;;;;;23.61;100.00;94225.41;10286518;28;20039;-74
2021/08/27 17:43:00;;;;;;;26.57;10.80;;;;;;;23.51;100.00;94232.31;10286246;28;20035;-74
2021/08/27 17:48:00;;;;;;;23.88;11.25;;;;;;;23.46;100.00;94244.38;10286603;28;20035;-74
2021/08/27 17:53:01;;;;;;;23.23;13.27;;;;;;;23.44;100.00;94241.22;10286893;28;20035;-74
2021/08/27 17:58:01;;;;;;;27.27;11.67;;;;;;;23.28;100.00;94252.31;10286964;28;20039;-73
2021/08/27 18:03:01;;;;;;;18.87;11.43;;;;;;;23.19;100.00;94243.53;10286806;28;20418;-73
2021/08/27 18:08:02;;;;;;;23.77;10.63;;;;;;;23.13;100.00;94245.81;10286404;28;20309;-74
2021/08/27 18:13:03;;;;;;;17.90;10.02;;;;;;;23.08;100.00;94254.31;10286445;28;20043;-74
2021/08/27 18:18:03;;;;;;;20.20;9.75;;;;;;;23.02;100.00;94273.00;10286299;28;20058;-74
2021/08/27 18:23:04;;;;;;;19.77;9.83;;;;;;;22.95;100.00;94283.81;10286010;28;20086;-74
2021/08/27 18:28:04;;;;;;;16.13;8.87;;;;;;;22.81;100.00;94283.56;10285051;28;20031;-73
2021/08/27 18:33:05;;;;;;;19.67;9.45;;;;;;;22.71;100.00;94293.16;10286041;28;20035;-73
2021/08/27 18:38:05;;;;;;;14.20;9.20;;;;;;;22.69;100.00;94299.00;10285788;28;20026;-74
2021/08/27 18:43:06;;;;;;;15.90;8.40;;;;;;;22.68;100.00;94308.38;10285667;28;20049;-73
2021/08/27 18:48:06;;;;;;;18.67;9.30;;;;;;;22.78;100.00;94317.19;10284646;28;20278;-74
2021/08/27 18:53:07;;;;;;;23.75;9.75;;;;;;;22.84;100.00;94304.75;10284925;28;20039;-74
2021/08/27 18:58:07;;;;;;;14.55;8.82;;;;;;;22.80;100.00;94321.16;10284761;28;20499;-74
2021/08/27 19:03:08;;;;;;;15.70;9.60;;;;;;;22.82;100.00;94335.25;10284568;28;20022;-74
2021/08/27 19:08:08;;;;;;;17.00;8.97;;;;;;;22.73;100.00;94326.50;10283619;28;20049;-73
2021/08/27 19:13:09;;;;;;;18.30;9.52;;;;;;;22.66;100.00;94321.66;10293169;28;20466;-74
2021/08/27 19:18:09;;;;;;;18.10;10.95;;;;;;;22.69;100.00;94320.94;10292474;28;20042;-74
2021/08/27 19:23:10;;;;;;;18.02;9.27;;;;;;;22.74;100.00;94325.31;10293087;28;20039;-74
2021/08/27 19:28:10;;;;;;;15.20;9.23;;;;;;;22.80;100.00;94336.78;10292234;28;20121;-73
2021/08/27 19:33:13;;;;;;;19.17;10.30;;;;;;;22.66;100.00;94340.00;10291284;28;20406;-73
2021/08/27 19:38:13;;;;;;;17.10;9.32;;;;;;;22.60;100.00;94342.25;10292460;28;20089;-74
2021/08/27 19:43:13;;;;;;;17.17;9.87;;;;;;;22.62;100.00;94350.91;10291996;28;20545;-73
2021/08/27 19:48:14;;;;;;;21.08;10.60;;;;;;;22.63;100.00;94344.28;10292003;28;20285;-73
2021/08/27 19:53:14;;;;;;;16.47;9.60;;;;;;;22.59;100.00;94348.09;10291761;28;20085;-73
2021/08/27 19:58:14;;;;;;;14.93;10.33;;;;;;;22.53;100.00;94350.31;10291590;28;20273;-74
2021/08/27 20:03:15;;;;;;;18.47;8.63;;;;;;;22.58;100.00;94363.75;10291729;28;20031;-74
2021/08/27 20:08:15;;;;;;;21.17;8.87;;;;;;;22.53;100.00;94358.53;10291376;28;20046;-73
2021/08/27 20:13:15;;;;;;;20.33;9.33;;;;;;;22.52;100.00;94362.41;10291095;28;20033;-74
2021/08/27 20:18:16;;;;;;;15.70;9.57;;;;;;;22.46;100.00;94383.03;10290897;28;20039;-73
2021/08/27 20:23:16;;;;;;;14.50;9.23;;;;;;;22.24;100.00;94388.00;10290647;28;20034;-74
2021/08/27 20:28:17;;;;;;;27.50;9.20;;;;;;;21.95;100.00;94392.00;10290487;28;20049;-74
2021/08/27 20:33:17;;;;;;;21.47;7.80;;;;;;;21.93;100.00;94389.63;10289034;28;20110;-73
2021/08/27 20:38:18;;;;;;;17.52;11.75;;;;;;;21.60;100.00;94395.44;10290133;28;20399;-74
2021/08/27 20:43:18;;;;;;;17.00;11.48;;;;;;;21.38;100.00;94396.78;10290101;28;20845;-74
2021/08/27 20:48:19;;;;;;;20.65;11.82;;;;;;;21.26;100.00;94403.91;10289476;28;20406;-74
2021/08/27 20:53:19;;;;;;;18.70;11.53;;;;;;;21.38;100.00;94391.34;10289536;28;20045;-74
2021/08/27 20:58:19;;;;;;;20.67;11.03;;;;;;;21.17;100.00;94397.84;10289284;28;20274;-74
2021/08/27 21:03:20;;;;;;;18.88;11.38;;;;;;;21.09;100.00;94399.56;10287711;28;20034;-74
2021/08/27 21:08:20;;;;;;;17.20;11.27;;;;;;;21.14;100.00;94403.97;10289117;28;20078;-73
2021/08/27 21:13:21;;;;;;;16.30;10.90;;;;;;;20.93;100.00;94415.09;10288626;28;20039;-74
2021/08/27 21:18:21;;;;;;;23.37;12.67;;;;;;;20.57;100.00;94423.03;10288660;28;20387;-74
2021/08/27 21:23:21;;;;;;;20.60;12.70;;;;;;;20.64;100.00;94419.75;10287539;28;20403;-74
2021/08/27 21:28:22;;;;;;;21.37;13.57;;;;;;;20.49;100.00;94419.28;10287103;28;20273;-74
2021/08/27 21:33:22;;;;;;;30.97;13.97;;;;;;;20.48;100.00;94420.44;10286655;28;20122;-74
2021/08/27 21:38:22;;;;;;;22.05;12.98;;;;;;;20.25;100.00;94428.31;10287836;28;20089;-73
2021/08/27 21:43:23;;;;;;;19.90;12.47;;;;;;;20.22;100.00;94434.47;10287738;28;20105;-74
2021/08/27 21:48:23;;;;;;;23.17;12.63;;;;;;;19.90;100.00;94428.78;10285947;28;20805;-74
2021/08/27 21:53:23;;;;;;;20.20;12.60;;;;;;;19.97;100.00;94431.72;10285063;28;20286;-74
2021/08/27 21:58:24;;;;;;;24.47;13.73;;;;;;;19.82;100.00;94435.13;10287152;28;20117;-74
2021/08/27 22:03:25;;;;;;;20.67;13.30;;;;;;;19.68;100.00;94429.97;10285937;28;20042;-73
2021/08/27 22:08:27;;;;;;;21.17;13.73;;;;;;;19.77;100.00;94435.31;10286709;28;20050;-73
2021/08/27 22:13:27;;;;;;;20.05;13.60;;;;;;;19.59;100.00;94443.72;10286631;28;20038;-74
2021/08/27 22:18:28;;;;;;;24.88;12.73;;;;;;;19.72;100.00;94444.53;10286365;28;20031;-73
2021/08/27 22:23:28;;;;;;;26.73;13.20;;;;;;;19.77;100.00;94446.22;10286154;28;20027;-74
2021/08/27 22:28:29;;;;;;;22.42;13.80;;;;;;;19.74;100.00;94450.41;10286358;28;20370;-74
2021/08/27 22:33:29;;;;;;;21.77;13.63;;;;;;;19.57;100.00;94447.91;10286304;28;20067;-74
2021/08/27 22:38:30;;;;;;;25.42;13.32;;;;;;;19.48;100.00;94448.00;10284532;28;20041;-73
2021/08/27 22:43:30;;;;;;;23.83;13.83;;;;;;;19.26;100.00;94452.69;10286246;28;20081;-74
2021/08/27 22:48:30;;;;;;;22.13;13.73;;;;;;;19.10;100.00;94460.69;10293344;28;20045;-74
2021/08/27 22:53:31;;;;;;;24.83;15.23;;;;;;;18.97;100.00;94456.31;10294181;28;20081;-74